Time;durP1;ratioP1;P1;durP2;ratioP2;P2;SDS_P1;SDS_P2;PMS_P1;PMS_P2;Temp;Humidity;BMP_temperature;BMP_pressure;BME280_temperature;BME280_humidity;BME280_pressure;Samples;Min_cycle;Max_cycle;Signal;HPM_P1;HPM_P2
2021/10/28 00:13:07;;;;;;;48.50;19.57;;;9.90;99.90;;;;;;5047247;28;20389;-61
2021/10/28 00:15:38;;;;;;;51.90;19.97;;;9.90;99.90;;;;;;5046622;28;20621;-61
2021/10/28 00:18:11;;;;;;;48.43;21.20;;;9.80;99.90;;;;;;5030247;28;20235;-61
2021/10/28 00:20:40;;;;;;;51.67;21.03;;;9.80;99.90;;;;;;5043979;28;20271;-60
2021/10/28 00:23:10;;;;;;;52.07;21.67;;;9.80;99.90;;;;;;5042111;28;20626;-60
2021/10/28 00:25:40;;;;;;;63.17;22.30;;;9.80;99.90;;;;;;5041823;28;20305;-60
2021/10/28 00:28:10;;;;;;;63.40;23.43;;;9.80;99.90;;;;;;5045128;28;20189;-61
2021/10/28 00:30:39;;;;;;;59.97;23.53;;;9.80;99.90;;;;;;5044002;28;20189;-59
2021/10/28 00:33:07;;;;;;;69.30;24.93;;;9.80;99.90;;;;;;5049798;28;20232;-61
2021/10/28 00:35:36;;;;;;;61.83;24.73;;;9.80;99.90;;;;;;5048819;28;20189;-60
2021/10/28 00:38:04;;;;;;;63.63;24.70;;;9.80;99.90;;;;;;5043233;28;20666;-60
2021/10/28 00:40:34;;;;;;;66.77;26.77;;;9.80;99.90;;;;;;5027896;28;20185;-61
2021/10/28 00:43:02;;;;;;;66.27;26.90;;;9.70;99.90;;;;;;5043834;28;20220;-60
2021/10/28 00:45:31;;;;;;;69.67;26.40;;;9.70;99.90;;;;;;5045475;28;20296;-61
2021/10/28 00:47:59;;;;;;;59.10;25.33;;;9.70;99.90;;;;;;5041879;28;20545;-60
2021/10/28 00:50:27;;;;;;;68.53;26.50;;;9.70;99.90;;;;;;5045923;28;20197;-60
2021/10/28 00:52:56;;;;;;;55.43;23.63;;;9.70;99.90;;;;;;5047578;28;20209;-61
2021/10/28 00:55:24;;;;;;;66.03;25.33;;;9.70;99.90;;;;;;5029016;28;20287;-61
2021/10/28 00:57:55;;;;;;;61.37;24.03;;;9.70;99.90;;;;;;5049136;28;20286;-61
2021/10/28 01:00:23;;;;;;;61.07;23.83;;;9.80;99.90;;;;;;5041254;28;20236;-61
2021/10/28 01:02:51;;;;;;;51.03;22.33;;;9.80;99.90;;;;;;5046880;28;20970;-60
2021/10/28 01:05:20;;;;;;;54.93;23.93;;;9.80;99.90;;;;;;5028195;28;20209;-61
2021/10/28 01:07:49;;;;;;;51.17;21.50;;;9.80;99.90;;;;;;5046033;28;20255;-60
2021/10/28 01:10:17;;;;;;;53.80;21.57;;;9.80;99.90;;;;;;5039785;28;20221;-59
2021/10/28 01:12:45;;;;;;;47.13;21.70;;;9.80;99.90;;;;;;5040710;28;20673;-60
2021/10/28 01:15:18;;;;;;;49.70;21.17;;;9.80;99.90;;;;;;5043948;28;20193;-60
2021/10/28 01:17:47;;;;;;;56.47;21.77;;;9.70;99.90;;;;;;5046904;28;20272;-61
2021/10/28 01:20:17;;;;;;;52.53;21.13;;;9.70;99.90;;;;;;5031366;28;20276;-60
2021/10/28 01:22:45;;;;;;;43.63;20.27;;;9.70;99.90;;;;;;5028327;28;20193;-61
2021/10/28 01:25:14;;;;;;;49.37;21.30;;;9.60;99.90;;;;;;5045575;28;20657;-60
2021/10/28 01:27:42;;;;;;;54.00;21.73;;;9.70;99.90;;;;;;5039098;28;20207;-60
2021/10/28 01:30:11;;;;;;;49.97;21.47;;;9.70;99.90;;;;;;5040927;28;20207;-59
2021/10/28 01:32:40;;;;;;;60.03;23.27;;;9.70;99.90;;;;;;5044409;28;20192;-59
2021/10/28 01:35:09;;;;;;;66.80;22.43;;;9.70;99.90;;;;;;5045614;28;20275;-61
2021/10/28 01:37:43;;;;;;;57.60;21.67;;;9.70;99.90;;;;;;5043668;28;20197;-61
2021/10/28 01:40:12;;;;;;;58.97;22.43;;;9.70;99.90;;;;;;5046297;28;20295;-61
2021/10/28 01:42:45;;;;;;;55.30;21.00;;;9.60;99.90;;;;;;5022676;28;20203;-60
2021/10/28 01:45:14;;;;;;;67.83;22.77;;;9.60;99.90;;;;;;5046521;28;20307;-61
2021/10/28 01:47:42;;;;;;;57.10;21.70;;;9.60;99.90;;;;;;5027418;28;20279;-60
2021/10/28 01:50:12;;;;;;;58.33;20.90;;;9.50;99.90;;;;;;5027150;28;20220;-61
2021/10/28 01:52:42;;;;;;;58.37;21.90;;;9.60;99.90;;;;;;5045322;28;20276;-61
2021/10/28 01:55:12;;;;;;;61.80;20.43;;;9.50;99.90;;;;;;5043225;28;20197;-61
2021/10/28 01:57:42;;;;;;;50.63;20.90;;;9.60;99.90;;;;;;5039418;28;20307;-60
2021/10/28 02:00:15;;;;;;;64.60;21.23;;;9.50;99.90;;;;;;5043342;28;20303;-61
2021/10/28 02:02:45;;;;;;;58.90;20.43;;;9.60;99.90;;;;;;5042308;28;20236;-61
2021/10/28 02:05:14;;;;;;;60.83;21.43;;;9.60;99.90;;;;;;5037964;28;20209;-61
2021/10/28 02:07:44;;;;;;;56.97;20.70;;;9.60;99.90;;;;;;5040902;28;20185;-60
2021/10/28 02:10:14;;;;;;;59.43;19.83;;;9.70;99.90;;;;;;5043767;28;20634;-61
2021/10/28 02:12:43;;;;;;;55.47;20.47;;;9.60;99.90;;;;;;5041756;28;20721;-61
2021/10/28 02:15:13;;;;;;;51.50;19.03;;;9.70;99.90;;;;;;5047759;28;20679;-61
2021/10/28 02:17:42;;;;;;;51.83;19.40;;;9.70;99.90;;;;;;5037303;28;20212;-60
2021/10/28 02:20:12;;;;;;;52.27;19.27;;;9.70;99.90;;;;;;5044857;28;20375;-61
2021/10/28 02:22:41;;;;;;;49.37;18.23;;;9.80;99.90;;;;;;5043564;28;20201;-59
2021/10/28 02:25:12;;;;;;;52.23;18.57;;;9.80;99.90;;;;;;5039124;28;20701;-59
2021/10/28 02:27:41;;;;;;;45.60;17.40;;;9.80;99.90;;;;;;5040066;28;20654;-61
2021/10/28 02:30:11;;;;;;;46.03;17.50;;;9.90;99.90;;;;;;5046917;28;20205;-60
2021/10/28 02:32:39;;;;;;;45.70;17.17;;;9.90;99.90;;;;;;5045027;28;20220;-57
2021/10/28 02:35:09;;;;;;;43.43;16.00;;;9.90;99.90;;;;;;5045581;28;20192;-61
2021/10/28 02:37:38;;;;;;;43.17;15.80;;;9.90;99.90;;;;;;5026747;28;20276;-59
2021/10/28 02:40:07;;;;;;;44.10;15.60;;;9.90;99.90;;;;;;5043939;28;20631;-59
2021/10/28 02:42:37;;;;;;;33.23;14.97;;;9.90;99.90;;;;;;5043164;28;20200;-60
2021/10/28 02:45:07;;;;;;;31.47;13.60;;;9.90;99.90;;;;;;5049288;28;20597;-61
2021/10/28 02:47:36;;;;;;;33.60;14.70;;;9.90;99.90;;;;;;5050411;28;20279;-61
2021/10/28 02:50:05;;;;;;;33.70;13.90;;;9.90;99.90;;;;;;5048919;28;20193;-61
2021/10/28 02:52:35;;;;;;;37.17;13.23;;;9.80;99.90;;;;;;5047085;28;20264;-59
2021/10/28 02:55:05;;;;;;;36.60;13.97;;;9.70;99.90;;;;;;5050794;28;20204;-61
2021/10/28 02:57:33;;;;;;;33.30;13.10;;;9.70;99.90;;;;;;5047156;28;20243;-61
2021/10/28 03:00:03;;;;;;;26.43;12.37;;;9.70;99.90;;;;;;5047202;28;20201;-60
2021/10/28 03:02:32;;;;;;;22.17;11.80;;;9.70;99.90;;;;;;5048133;28;20322;-61
2021/10/28 03:05:01;;;;;;;25.00;12.20;;;9.70;99.90;;;;;;5048106;28;20223;-61
2021/10/28 03:07:34;;;;;;;26.47;11.77;;;9.60;99.90;;;;;;5046767;28;20216;-60
2021/10/28 03:10:04;;;;;;;25.77;11.73;;;9.60;99.90;;;;;;5032629;28;20215;-61
2021/10/28 03:12:34;;;;;;;26.57;11.33;;;9.50;99.90;;;;;;5044360;28;20747;-61
2021/10/28 03:15:11;;;;;;;25.90;11.53;;;9.50;99.90;;;;;;5048159;28;20204;-61
2021/10/28 03:17:54;;;;;;;19.40;10.17;;;9.50;99.90;;;;;;5031954;28;20744;-58
2021/10/28 03:25:55;;;;;;;18.47;8.97;;;9.40;99.90;;;;;;5043251;28;20227;-61
2021/10/28 03:28:24;;;;;;;17.67;8.97;;;9.40;99.90;;;;;;5028344;28;20192;-59
2021/10/28 03:30:54;;;;;;;12.37;8.60;;;9.40;99.90;;;;;;5050444;28;20295;-60
2021/10/28 03:33:23;;;;;;;14.93;8.53;;;9.40;99.90;;;;;;5033206;28;20223;-60
2021/10/28 03:35:52;;;;;;;15.97;8.30;;;9.40;99.90;;;;;;5048806;28;20657;-61
2021/10/28 03:38:24;;;;;;;11.87;7.73;;;9.40;99.90;;;;;;5049354;28;20300;-60
2021/10/28 04:20:32;;;;;;;13.93;7.77;;;9.20;99.90;;;;;;5044830;28;20291;-61
2021/10/28 04:28:55;;;;;;;10.73;7.67;;;9.10;99.90;;;;;;5041403;28;20199;-59
2021/10/28 04:31:25;;;;;;;14.43;8.13;;;9.10;99.90;;;;;;5042913;28;20292;-61
2021/10/28 04:33:53;;;;;;;10.13;7.93;;;9.10;99.90;;;;;;5044978;28;20207;-60
2021/10/28 04:36:28;;;;;;;11.30;7.50;;;9.10;99.90;;;;;;5043771;28;20191;-61
2021/10/28 04:38:57;;;;;;;14.97;8.23;;;9.10;99.90;;;;;;5029067;28;20748;-61
2021/10/28 04:41:29;;;;;;;14.37;8.40;;;9.10;99.90;;;;;;5043819;28;20195;-61
2021/10/28 04:44:01;;;;;;;10.87;7.93;;;9.10;99.90;;;;;;5043349;28;20408;-60
2021/10/28 04:46:30;;;;;;;13.47;7.97;;;9.10;99.90;;;;;;5044240;28;20304;-61
2021/10/28 04:48:58;;;;;;;11.97;7.63;;;9.00;99.90;;;;;;5042225;28;20193;-60
2021/10/28 04:51:28;;;;;;;15.33;9.07;;;9.00;99.90;;;;;;5047144;28;20250;-60
2021/10/28 04:54:01;;;;;;;16.63;8.93;;;9.00;99.90;;;;;;5042055;28;20192;-61
2021/10/28 04:56:29;;;;;;;14.17;8.50;;;9.00;99.90;;;;;;5025287;28;20239;-61
2021/10/28 04:58:57;;;;;;;16.50;8.20;;;8.90;99.90;;;;;;5042255;28;20740;-60
2021/10/28 05:01:27;;;;;;;17.50;9.50;;;8.90;99.90;;;;;;5044011;28;20232;-61
2021/10/28 05:03:56;;;;;;;13.83;8.80;;;8.90;99.90;;;;;;5045731;28;20436;-61
2021/10/28 05:06:24;;;;;;;13.83;8.73;;;8.90;99.90;;;;;;5042385;28;20697;-61
2021/10/28 05:08:54;;;;;;;11.13;8.50;;;8.80;99.90;;;;;;5040696;28;20299;-61
2021/10/28 05:11:24;;;;;;;12.63;8.10;;;8.70;99.90;;;;;;5021018;28;20252;-61
2021/10/28 05:13:53;;;;;;;13.03;8.77;;;8.70;99.90;;;;;;5023411;28;20295;-61
2021/10/28 05:16:21;;;;;;;13.93;9.00;;;8.60;99.90;;;;;;5045546;28;20284;-61
2021/10/28 05:18:50;;;;;;;13.67;9.23;;;8.60;99.90;;;;;;5042086;28;20206;-60
2021/10/28 05:21:19;;;;;;;16.20;9.87;;;8.50;99.90;;;;;;5043117;28;20805;-61
2021/10/28 05:23:47;;;;;;;17.80;10.20;;;8.40;99.90;;;;;;5040442;28;20674;-60
2021/10/28 05:26:17;;;;;;;16.50;10.20;;;8.50;99.90;;;;;;5039028;28;20885;-61
2021/10/28 05:28:45;;;;;;;18.40;10.10;;;8.50;99.90;;;;;;5042598;28;20189;-61
2021/10/28 05:31:13;;;;;;;15.07;9.83;;;8.40;99.90;;;;;;5044556;28;20284;-60
2021/10/28 05:33:42;;;;;;;20.13;10.87;;;8.40;99.90;;;;;;5026866;28;20448;-61
2021/10/28 05:36:10;;;;;;;21.10;11.20;;;8.40;99.90;;;;;;5024464;28;20665;-61
2021/10/28 05:38:39;;;;;;;21.43;11.90;;;8.50;99.90;;;;;;5027266;28;20280;-61
2021/10/28 05:41:07;;;;;;;19.03;11.80;;;8.50;99.90;;;;;;5038145;28;20339;-60
2021/10/28 05:43:37;;;;;;;19.63;11.40;;;8.50;99.90;;;;;;5043680;28;20584;-61
2021/10/28 05:46:05;;;;;;;22.07;12.57;;;8.60;99.90;;;;;;5041271;28;20227;-59
2021/10/28 05:48:34;;;;;;;21.17;12.40;;;8.60;99.90;;;;;;5044683;28;20196;-60
2021/10/28 05:51:02;;;;;;;26.03;13.20;;;8.60;99.90;;;;;;5044811;28;20627;-60
2021/10/28 05:53:31;;;;;;;21.60;12.23;;;8.70;99.90;;;;;;5042478;28;20622;-61
2021/10/28 05:55:59;;;;;;;24.73;13.10;;;8.70;99.90;;;;;;5045510;28;20199;-61
2021/10/28 05:58:27;;;;;;;27.53;12.80;;;8.70;99.90;;;;;;5019808;28;20285;-60
2021/10/28 06:01:00;;;;;;;17.87;12.73;;;8.70;99.90;;;;;;5023454;28;22245;-61
2021/10/28 06:03:30;;;;;;;21.40;12.67;;;8.80;99.90;;;;;;5017614;28;20769;-59
2021/10/28 06:05:59;;;;;;;21.87;13.43;;;8.80;99.90;;;;;;5021481;28;20201;-61
2021/10/28 06:08:27;;;;;;;19.87;12.07;;;8.80;99.90;;;;;;5020213;28;20213;-60
2021/10/28 06:10:55;;;;;;;25.33;12.77;;;8.70;99.90;;;;;;5020548;28;20209;-61
2021/10/28 06:13:24;;;;;;;23.60;12.80;;;8.70;99.90;;;;;;5018871;28;20404;-61
2021/10/28 06:15:53;;;;;;;24.20;12.63;;;8.70;99.90;;;;;;5026185;28;20264;-61
2021/10/28 06:18:37;;;;;;;21.73;12.40;;;8.60;99.90;;;;;;5024264;28;20193;-60
2021/10/28 06:21:07;;;;;;;25.50;13.30;;;8.50;99.90;;;;;;5001325;28;20221;-60
2021/10/28 06:23:36;;;;;;;27.00;13.30;;;8.60;99.90;;;;;;5022681;28;20194;-61
2021/10/28 06:26:04;;;;;;;22.00;13.67;;;8.60;99.90;;;;;;5022186;28;20643;-61
2021/10/28 06:28:33;;;;;;;28.20;13.40;;;8.60;99.90;;;;;;5025775;28;20233;-61
2021/10/28 06:31:02;;;;;;;30.53;14.27;;;8.70;99.90;;;;;;5022551;28;20201;-61
2021/10/28 06:33:35;;;;;;;26.07;14.33;;;8.70;99.90;;;;;;5025661;28;20570;-60
2021/10/28 06:36:04;;;;;;;22.27;13.60;;;8.70;99.90;;;;;;5018160;28;20646;-61
2021/10/28 06:38:34;;;;;;;25.07;13.23;;;8.70;99.90;;;;;;5015790;28;20182;-61
2021/10/28 06:41:03;;;;;;;22.47;13.13;;;8.60;99.90;;;;;;5019619;28;20280;-61
2021/10/28 06:43:32;;;;;;;25.43;13.57;;;8.60;99.90;;;;;;5018259;28;20236;-60
2021/10/28 06:46:00;;;;;;;25.57;13.27;;;8.60;99.90;;;;;;5022793;28;20232;-61
2021/10/28 06:48:28;;;;;;;25.53;14.00;;;8.60;99.90;;;;;;5027353;28;20201;-59
2021/10/28 06:50:59;;;;;;;24.83;13.53;;;8.70;99.90;;;;;;5003658;28;20206;-61
2021/10/28 06:53:30;;;;;;;24.30;14.27;;;8.70;99.90;;;;;;5001997;28;20645;-61
2021/10/28 06:56:04;;;;;;;26.57;13.97;;;8.70;99.90;;;;;;4987005;28;20200;-61
2021/10/28 07:04:05;;;;;;;31.87;15.73;;;8.60;99.90;;;;;;5032185;28;20228;-61
2021/10/28 07:06:38;;;;;;;26.93;14.97;;;8.70;99.90;;;;;;5040384;28;20209;-60
2021/10/28 07:09:17;;;;;;;28.47;14.90;;;8.70;99.90;;;;;;5051257;28;20275;-60
2021/10/28 07:11:50;;;;;;;25.77;15.07;;;8.80;99.90;;;;;;5040873;28;20270;-60
2021/10/28 07:14:19;;;;;;;29.63;15.77;;;8.90;99.90;;;;;;5041260;28;20223;-60
2021/10/28 07:16:58;;;;;;;29.57;15.00;;;8.90;99.90;;;;;;5045562;28;20287;-60
2021/10/28 07:19:51;;;;;;;27.83;14.83;;;9.00;99.90;;;;;;5049143;28;20213;-60
2021/10/28 07:28:11;;;;;;;26.13;14.17;;;9.30;99.90;;;;;;5017282;28;20230;-60
2021/10/28 07:31:04;;;;;;;26.80;15.13;;;9.30;99.90;;;;;;5047557;28;20724;-55
2021/10/28 07:33:46;;;;;;;27.73;14.53;;;9.40;99.90;;;;;;5049140;28;20227;-60
2021/10/28 07:56:21;;;;;;;21.50;13.53;;;10.10;99.90;;;;;;5055254;28;20236;-61
2021/10/28 08:15:39;;;;;;;21.23;12.80;;;10.90;99.90;;;;;;5047306;28;20201;-60
2021/10/28 08:18:33;;;;;;;25.17;13.70;;;11.00;99.90;;;;;;5046621;28;20211;-60
2021/10/28 08:21:26;;;;;;;26.40;14.47;;;11.10;99.90;;;;;;5055358;28;20279;-61
2021/10/28 08:24:04;;;;;;;26.50;13.63;;;11.20;99.90;;;;;;5016054;28;20453;-61
2021/10/28 08:29:23;;;;;;;26.43;15.60;;;11.30;99.90;;;;;;5046466;28;20234;-61
2021/10/28 08:31:53;;;;;;;27.57;15.17;;;11.30;99.90;;;;;;5025938;28;20247;-60
2021/10/28 08:34:26;;;;;;;25.93;15.03;;;11.40;99.90;;;;;;5043964;28;20208;-61
2021/10/28 08:36:55;;;;;;;27.40;16.17;;;11.60;99.90;;;;;;5035234;28;20292;-61
2021/10/28 08:39:24;;;;;;;29.90;15.93;;;11.60;99.90;;;;;;5027962;28;20657;-61
2021/10/28 08:41:53;;;;;;;27.60;16.07;;;11.70;99.90;;;;;;5047503;28;20200;-60
2021/10/28 08:44:23;;;;;;;26.77;15.20;;;11.80;99.90;;;;;;5028544;28;20304;-61
2021/10/28 08:46:53;;;;;;;26.80;15.17;;;11.90;99.90;;;;;;5049387;28;20211;-61
2021/10/28 08:49:29;;;;;;;28.20;15.33;;;12.00;99.90;;;;;;5046170;28;20295;-59
2021/10/28 08:52:07;;;;;;;27.10;14.43;;;12.10;99.90;;;;;;5040529;28;20291;-60
2021/10/28 08:54:57;;;;;;;23.47;13.37;;;12.10;99.90;;;;;;5023238;28;20636;-61
2021/10/28 09:25:49;;;;;;;19.53;12.73;;;13.30;99.90;;;;;;4987146;28;20237;-60
2021/10/28 09:28:26;;;;;;;22.73;12.10;;;13.40;99.90;;;;;;4989347;28;20287;-60
2021/10/28 09:31:07;;;;;;;23.40;13.47;;;13.50;99.90;;;;;;5026938;28;20288;-60
2021/10/28 09:33:46;;;;;;;21.87;13.30;;;13.80;99.90;;;;;;5063325;28;20613;-60
2021/10/28 09:45:30;;;;;;;19.23;12.03;;;13.90;99.90;;;;;;5065531;28;20621;-60
2021/10/28 09:48:17;;;;;;;23.23;12.53;;;13.90;99.90;;;;;;5059672;28;20611;-60
2021/10/28 09:50:53;;;;;;;21.17;12.23;;;13.80;99.90;;;;;;5051367;28;20287;-60
2021/10/28 09:53:28;;;;;;;18.43;11.20;;;13.80;99.90;;;;;;5059328;28;20291;-58
2021/10/28 09:58:44;;;;;;;17.87;11.00;;;14.10;99.90;;;;;;5059096;28;20660;-60
2021/10/28 10:01:35;;;;;;;18.67;11.93;;;14.10;99.90;;;;;;5055925;28;20658;-60
2021/10/28 10:04:06;;;;;;;17.23;11.07;;;14.20;99.90;;;;;;5062732;28;20200;-61
2021/10/28 10:06:40;;;;;;;19.37;11.50;;;14.30;99.90;;;;;;5055923;28;20197;-61
2021/10/28 10:09:08;;;;;;;18.27;10.20;;;14.50;99.90;;;;;;5052808;28;20203;-60
2021/10/28 10:11:36;;;;;;;16.23;11.53;;;14.50;99.90;;;;;;5049037;28;20306;-59
2021/10/28 10:14:05;;;;;;;17.47;10.47;;;14.60;99.90;;;;;;5045591;28;20215;-61
2021/10/28 10:16:34;;;;;;;21.07;10.40;;;14.80;99.90;;;;;;5047341;28;20283;-60
2021/10/28 10:19:03;;;;;;;18.87;10.73;;;14.80;99.90;;;;;;5047216;28;20320;-60
2021/10/28 10:21:36;;;;;;;16.53;9.97;;;14.90;99.90;;;;;;5048964;28;20219;-60
2021/10/28 10:24:13;;;;;;;13.73;9.90;;;14.90;99.90;;;;;;5044970;28;20802;-61
2021/10/28 11:25:45;;;;;;;12.10;8.37;;;17.30;99.90;;;;;;5043858;28;20201;-61
2021/10/28 12:23:35;;;;;;;7.17;6.47;;;17.90;99.90;;;;;;5025620;28;20276;-60
2021/10/28 12:46:29;;;;;;;6.50;4.90;;;18.00;99.90;;;;;;5069218;28;20234;-61
2021/10/28 12:52:26;;;;;;;5.00;4.60;;;18.10;99.90;;;;;;5049614;28;20555;-60
2021/10/28 13:04:07;;;;;;;4.73;4.40;;;18.00;99.90;;;;;;5071618;28;20425;-61
2021/10/28 13:06:58;;;;;;;6.43;5.07;;;17.80;99.90;;;;;;5076173;28;20208;-61
2021/10/28 13:48:28;;;;;;;5.67;4.97;;;17.60;99.90;;;;;;5070758;28;20202;-61
2021/10/28 13:51:11;;;;;;;5.07;4.50;;;17.50;99.90;;;;;;5065609;28;20309;-61
2021/10/28 13:57:10;;;;;;;5.70;4.43;;;17.60;99.90;;;;;;5105206;27;20635;-61
2021/10/28 14:27:53;;;;;;;4.10;3.80;;;18.00;99.90;;;;;;5097997;28;20191;-60
2021/10/28 15:29:06;;;;;;;5.80;3.97;;;16.50;99.90;;;;;;5080391;28;20291;-60
2021/10/28 15:37:08;;;;;;;8.83;4.17;;;16.40;99.90;;;;;;5080540;28;20236;-61
2021/10/28 15:39:41;;;;;;;4.37;3.97;;;16.30;99.90;;;;;;5083802;28;20270;-60
2021/10/28 15:53:45;;;;;;;6.40;5.20;;;16.00;99.90;;;;;;5083651;28;20295;-59
2021/10/28 16:24:03;;;;;;;8.07;6.37;;;15.10;99.90;;;;;;5082214;28;20733;-60
2021/10/28 16:26:33;;;;;;;12.57;6.90;;;15.00;99.90;;;;;;5083527;28;20230;-60
2021/10/28 16:29:06;;;;;;;12.53;6.83;;;15.00;99.90;;;;;;5081925;28;20222;-60
2021/10/28 16:31:36;;;;;;;11.33;6.83;;;14.90;99.90;;;;;;5081486;28;20282;-60
2021/10/28 16:34:04;;;;;;;8.93;6.73;;;14.80;99.90;;;;;;5086196;28;20274;-60
2021/10/28 16:36:32;;;;;;;17.43;7.83;;;14.70;99.90;;;;;;5080921;28;20295;-59
2021/10/28 16:39:05;;;;;;;10.27;7.40;;;14.70;99.90;;;;;;5083023;28;20268;-60
2021/10/28 16:41:35;;;;;;;8.67;6.53;;;14.70;99.90;;;;;;5081727;28;20257;-60
2021/10/28 16:44:04;;;;;;;11.23;6.60;;;14.70;99.90;;;;;;5086683;28;20274;-59
2021/10/28 16:46:32;;;;;;;11.13;7.20;;;14.70;99.90;;;;;;5072801;28;20188;-60
2021/10/28 16:49:00;;;;;;;8.53;6.63;;;14.60;99.90;;;;;;5079704;28;20195;-61
2021/10/28 16:51:29;;;;;;;15.20;6.70;;;14.50;99.90;;;;;;5082485;28;20291;-61
2021/10/28 16:53:57;;;;;;;10.77;6.50;;;14.60;99.90;;;;;;5077522;28;20638;-61
2021/10/28 16:56:26;;;;;;;10.97;7.47;;;14.50;99.90;;;;;;5085220;28;20258;-60
2021/10/28 16:58:56;;;;;;;13.17;7.27;;;14.50;99.90;;;;;;5083055;28;20199;-60
2021/10/28 17:01:25;;;;;;;9.27;7.07;;;14.50;99.90;;;;;;5081040;28;20219;-60
2021/10/28 17:03:54;;;;;;;12.60;7.93;;;14.50;99.90;;;;;;5085663;28;20221;-60
2021/10/28 17:06:22;;;;;;;11.00;8.60;;;14.50;99.90;;;;;;5089625;28;20223;-59
2021/10/28 17:08:57;;;;;;;12.33;8.33;;;14.50;99.90;;;;;;5081030;28;20222;-60
2021/10/28 17:11:27;;;;;;;17.60;9.70;;;14.50;99.90;;;;;;5084085;28;20196;-60
2021/10/28 17:13:57;;;;;;;11.50;8.23;;;14.40;99.90;;;;;;5079479;28;20226;-60
2021/10/28 17:16:26;;;;;;;11.80;8.17;;;14.30;99.90;;;;;;5080088;28;20802;-60
2021/10/28 17:18:54;;;;;;;13.17;7.97;;;14.30;99.90;;;;;;5082758;28;20206;-60
2021/10/28 17:21:23;;;;;;;10.43;8.20;;;14.20;99.90;;;;;;5085079;28;20257;-60
2021/10/28 17:23:59;;;;;;;15.33;7.63;;;14.20;99.90;;;;;;5080549;28;20433;-60
2021/10/28 17:26:28;;;;;;;13.77;7.87;;;14.20;99.90;;;;;;5076046;28;20278;-60
2021/10/28 17:29:01;;;;;;;16.90;7.23;;;14.00;99.90;;;;;;5081273;28;20279;-61
2021/10/28 17:31:31;;;;;;;15.23;7.53;;;13.90;99.90;;;;;;5081684;28;20199;-60
2021/10/28 17:34:00;;;;;;;10.30;7.47;;;13.80;99.90;;;;;;5082421;28;20211;-61
2021/10/28 17:36:28;;;;;;;12.47;7.00;;;13.80;99.90;;;;;;5085014;28;20217;-61
2021/10/28 17:38:57;;;;;;;11.03;6.30;;;13.70;99.90;;;;;;5080305;28;20277;-60
2021/10/28 17:41:26;;;;;;;10.80;6.60;;;13.70;99.90;;;;;;5078747;28;20665;-60
2021/10/28 17:43:57;;;;;;;11.93;6.47;;;13.70;99.90;;;;;;5080298;28;20325;-61
2021/10/28 17:46:26;;;;;;;8.47;5.67;;;13.70;99.90;;;;;;5082200;28;20666;-60
2021/10/28 17:48:55;;;;;;;8.63;6.23;;;13.70;99.90;;;;;;5079943;28;20202;-61
2021/10/28 17:51:24;;;;;;;9.60;6.20;;;13.70;99.90;;;;;;5082724;28;20741;-60
2021/10/28 17:53:55;;;;;;;8.87;5.97;;;13.60;99.90;;;;;;5080337;28;20658;-60
2021/10/28 17:56:23;;;;;;;8.97;6.17;;;13.60;99.90;;;;;;5081959;28;20318;-60
2021/10/28 17:58:51;;;;;;;12.93;6.20;;;13.60;99.90;;;;;;5085586;28;20270;-60
2021/10/28 18:01:22;;;;;;;9.53;6.47;;;13.60;99.90;;;;;;5081418;28;20227;-61
2021/10/28 18:03:56;;;;;;;8.23;6.43;;;13.60;99.90;;;;;;5082496;28;20207;-61
2021/10/28 18:06:24;;;;;;;9.07;6.40;;;13.50;99.90;;;;;;5083331;28;20223;-60
2021/10/28 18:08:52;;;;;;;11.57;6.37;;;13.50;99.90;;;;;;5082393;28;20206;-61
2021/10/28 18:11:21;;;;;;;9.57;6.03;;;13.50;99.90;;;;;;5088887;28;20749;-60
2021/10/28 18:13:53;;;;;;;15.50;6.37;;;13.50;99.90;;;;;;5077175;28;20662;-60
2021/10/28 18:16:25;;;;;;;10.40;6.50;;;13.50;99.90;;;;;;5076494;28;20219;-59
2021/10/28 18:18:54;;;;;;;11.57;6.43;;;13.60;99.90;;;;;;5075775;28;20200;-61
2021/10/28 18:21:24;;;;;;;8.67;6.30;;;13.60;99.90;;;;;;5077238;28;20203;-60
2021/10/28 18:23:57;;;;;;;11.60;6.47;;;13.60;99.90;;;;;;5075494;28;20282;-60
2021/10/28 18:26:26;;;;;;;8.27;6.10;;;13.50;99.90;;;;;;5078226;28;20238;-60
2021/10/28 18:28:56;;;;;;;9.93;6.33;;;13.50;99.90;;;;;;5080858;28;20203;-60
2021/10/28 18:31:27;;;;;;;8.17;5.97;;;13.50;99.90;;;;;;5079473;28;20246;-61
2021/10/28 18:33:57;;;;;;;7.17;5.50;;;13.50;99.90;;;;;;5078275;28;20210;-60
2021/10/28 18:36:26;;;;;;;6.40;5.80;;;13.50;99.90;;;;;;5083358;28;20299;-60
2021/10/28 18:38:56;;;;;;;8.43;5.93;;;13.50;99.90;;;;;;5078055;28;20234;-61
2021/10/28 18:41:25;;;;;;;11.50;6.03;;;13.40;99.90;;;;;;5081023;28;20233;-60
2021/10/28 18:43:54;;;;;;;9.93;6.40;;;13.30;99.90;;;;;;5084342;28;20244;-60
2021/10/28 18:46:23;;;;;;;9.77;6.13;;;13.40;99.90;;;;;;5094258;28;20195;-60
2021/10/28 18:48:53;;;;;;;12.80;6.60;;;13.30;99.90;;;;;;5084644;28;20655;-60
2021/10/28 18:51:22;;;;;;;13.23;6.80;;;13.20;99.90;;;;;;5082871;28;20675;-60
2021/10/28 18:53:51;;;;;;;12.00;7.37;;;13.20;99.90;;;;;;5084431;28;20285;-60
2021/10/28 18:56:20;;;;;;;8.50;6.53;;;13.10;99.90;;;;;;5086580;28;20310;-60
2021/10/28 18:58:49;;;;;;;16.00;7.20;;;13.10;99.90;;;;;;5086896;28;20230;-60
2021/10/28 19:01:19;;;;;;;8.93;6.43;;;13.10;99.90;;;;;;5083652;28;20184;-61
2021/10/28 19:03:51;;;;;;;8.27;6.13;;;13.10;99.90;;;;;;5084001;28;20238;-61
2021/10/28 19:06:24;;;;;;;9.70;5.83;;;13.00;99.90;;;;;;5083503;28;20573;-61
2021/10/28 19:08:53;;;;;;;9.60;6.60;;;13.10;99.90;;;;;;5079338;28;20204;-61
2021/10/28 19:11:24;;;;;;;8.67;6.20;;;13.00;99.90;;;;;;5081422;28;20250;-61
2021/10/28 19:13:54;;;;;;;9.27;6.77;;;13.00;99.90;;;;;;5085427;28;20238;-61
2021/10/28 19:16:25;;;;;;;10.03;7.10;;;13.00;99.90;;;;;;5083142;28;20274;-60
2021/10/28 19:18:54;;;;;;;8.50;6.63;;;13.00;99.90;;;;;;5086557;28;20211;-61
2021/10/28 19:21:24;;;;;;;7.20;6.03;;;13.00;99.90;;;;;;5085455;28;20199;-60
2021/10/28 19:23:53;;;;;;;9.30;6.63;;;13.00;99.90;;;;;;5084178;28;20244;-61
2021/10/28 19:26:25;;;;;;;10.60;6.70;;;12.90;99.90;;;;;;5085210;28;20290;-60
2021/10/28 19:28:53;;;;;;;8.47;6.73;;;12.90;99.90;;;;;;5082646;28;20230;-60
2021/10/28 19:31:23;;;;;;;8.03;6.83;;;12.90;99.90;;;;;;5087093;28;20195;-61
2021/10/28 19:33:54;;;;;;;11.17;7.53;;;12.80;99.90;;;;;;5087454;28;20670;-61
2021/10/28 19:36:28;;;;;;;8.87;6.83;;;12.80;99.90;;;;;;5086444;28;20246;-61
2021/10/28 19:42:13;;;;;;;7.10;6.40;;;12.70;99.90;;;;;;5083640;28;20609;-61
2021/10/28 19:47:27;;;;;;;13.57;7.23;;;12.60;99.90;;;;;;5053246;28;20331;-60
2021/10/28 19:49:56;;;;;;;8.67;7.10;;;12.50;99.90;;;;;;5067040;28;20203;-61
2021/10/28 19:52:24;;;;;;;8.30;7.07;;;12.50;99.90;;;;;;5063532;28;20280;-60
2021/10/28 19:54:58;;;;;;;9.70;6.93;;;12.50;99.90;;;;;;5052244;28;20679;-61
2021/10/28 19:57:30;;;;;;;11.53;7.10;;;12.40;99.90;;;;;;5061175;28;20275;-60
2021/10/28 20:00:00;;;;;;;10.83;7.10;;;12.40;99.90;;;;;;5061186;28;20306;-61
2021/10/28 20:02:36;;;;;;;10.80;6.93;;;12.40;99.90;;;;;;5060143;28;20204;-60
2021/10/28 20:05:23;;;;;;;11.27;7.47;;;12.40;99.90;;;;;;5059875;28;20207;-61
2021/10/28 20:08:12;;;;;;;10.50;6.80;;;12.40;99.90;;;;;;5064029;28;20283;-61
2021/10/28 20:21:50;;;;;;;7.10;6.40;;;12.30;99.90;;;;;;5060596;28;20639;-62
2021/10/28 20:24:20;;;;;;;7.03;6.33;;;12.40;99.90;;;;;;5058835;28;20480;-62
2021/10/28 20:26:48;;;;;;;7.10;6.10;;;12.40;99.90;;;;;;5061453;28;21468;-62
2021/10/28 20:29:18;;;;;;;7.47;6.77;;;12.40;99.90;;;;;;5059454;28;20633;-62
2021/10/28 20:31:46;;;;;;;10.17;6.67;;;12.40;99.90;;;;;;5063101;28;20271;-62
2021/10/28 20:34:25;;;;;;;8.77;6.67;;;12.30;99.90;;;;;;5059345;28;20204;-62
2021/10/28 20:37:07;;;;;;;7.73;6.00;;;12.30;99.90;;;;;;5057807;28;20228;-62
2021/10/28 20:39:38;;;;;;;8.73;5.93;;;12.30;99.90;;;;;;5058108;28;20203;-62
2021/10/28 20:42:07;;;;;;;6.77;6.07;;;12.30;99.90;;;;;;5063612;28;20371;-62
2021/10/28 20:44:37;;;;;;;7.20;6.33;;;12.30;99.90;;;;;;5064731;28;20279;-62
2021/10/28 20:47:05;;;;;;;9.30;5.87;;;12.40;99.90;;;;;;5053222;28;20272;-61
2021/10/28 20:49:35;;;;;;;6.60;5.83;;;12.40;99.90;;;;;;5057730;28;20609;-62
2021/10/28 20:52:04;;;;;;;9.30;6.17;;;12.50;99.90;;;;;;5050103;28;20203;-62
2021/10/28 20:54:32;;;;;;;6.70;5.07;;;12.50;99.90;;;;;;5043161;28;20235;-62
2021/10/28 20:57:02;;;;;;;7.40;5.43;;;12.50;99.90;;;;;;5047087;28;20364;-62
2021/10/28 20:59:32;;;;;;;8.47;5.87;;;12.60;99.90;;;;;;5044233;28;20185;-62
2021/10/28 21:02:03;;;;;;;6.67;5.53;;;12.60;99.90;;;;;;5048939;28;20427;-61
2021/10/28 21:04:31;;;;;;;6.50;5.90;;;12.60;99.90;;;;;;5048370;28;20256;-62
2021/10/28 21:06:59;;;;;;;6.67;5.43;;;12.60;99.90;;;;;;5045567;28;20232;-61
2021/10/28 21:09:28;;;;;;;9.03;5.90;;;12.70;99.90;;;;;;5047495;28;20288;-60